createdAt,value
2023-05-01T00:01:37.540Z,98427.63
2023-05-01T00:04:05.235Z,98430.81
2023-05-01T00:06:33.618Z,98419.66
2023-05-01T00:09:01.210Z,98429.56
2023-05-01T00:11:29.019Z,98421.91
2023-05-01T00:13:57.889Z,98425.25
2023-05-01T00:16:25.302Z,98424.47
2023-05-01T00:18:52.761Z,98415.88
2023-05-01T00:21:20.434Z,98420.97
2023-05-01T00:23:47.663Z,98432.09
2023-05-01T00:26:15.011Z,98429.56
2023-05-01T00:28:46.029Z,98436.25
2023-05-01T00:31:14.822Z,98420.00
2023-05-01T00:33:42.215Z,98418.44
2023-05-01T00:36:10.202Z,98420.19
2023-05-01T00:38:37.510Z,98420.97
2023-05-01T00:41:04.936Z,98406.47
2023-05-01T00:43:32.850Z,98391.22
2023-05-01T00:46:00.342Z,98391.88
2023-05-01T00:48:29.045Z,98399.34
2023-05-01T00:50:56.855Z,98396.63
2023-05-01T00:53:26.392Z,98415.56
2023-05-01T00:55:56.596Z,98433.03
2023-05-01T00:58:24.115Z,98437.81
2023-05-01T01:00:52.432Z,98448.63
2023-05-01T01:03:19.983Z,98447.81
2023-05-01T01:05:53.615Z,98449.41
2023-05-01T01:08:27.046Z,98433.69
2023-05-01T01:10:58.677Z,98412.06
2023-05-01T01:13:30.432Z,98389.19
2023-05-01T01:16:09.298Z,98372.97
2023-05-01T01:18:43.961Z,98360.06
2023-05-01T01:21:19.154Z,98354.19
2023-05-01T01:24:22.377Z,98348.94
2023-05-01T01:27:21.666Z,98326.72
2023-05-01T01:30:07.183Z,98342.13
2023-05-01T01:33:07.600Z,98346.56
2023-05-01T01:35:39.152Z,98358.00
2023-05-01T01:38:10.839Z,98362.13
2023-05-01T01:40:45.260Z,98352.94
2023-05-01T01:43:16.799Z,98338.31
2023-05-01T01:45:48.459Z,98333.03
2023-05-01T01:48:19.188Z,98361.34
2023-05-01T01:50:48.644Z,98365.34
2023-05-01T01:53:18.764Z,98359.44
2023-05-01T01:55:48.303Z,98359.59
2023-05-01T01:58:18.417Z,98368.03
2023-05-01T02:00:46.472Z,98361.84
2023-05-01T02:03:15.442Z,98353.22
2023-05-01T02:05:43.841Z,98346.25
2023-05-01T02:08:14.967Z,98341.16
2023-05-01T02:10:44.436Z,98358.03
2023-05-01T02:13:14.325Z,98367.72
2023-05-01T02:15:42.448Z,98373.59
2023-05-01T02:18:10.272Z,98375.50
2023-05-01T02:20:38.373Z,98371.22
2023-05-01T02:23:07.978Z,98388.84
2023-05-01T02:25:39.629Z,98390.91
2023-05-01T02:28:12.399Z,98400.47
2023-05-01T02:30:40.299Z,98413.84
2023-05-01T02:33:09.113Z,98419.56
2023-05-01T02:35:40.688Z,98432.41
2023-05-01T02:38:08.658Z,98433.22
2023-05-01T02:40:39.550Z,98444.19
2023-05-01T02:43:12.718Z,98442.59
2023-05-01T02:45:42.395Z,98439.44
2023-05-01T02:48:13.439Z,98437.38
2023-05-01T02:50:44.937Z,98430.19
2023-05-01T02:53:13.584Z,98423.84
2023-05-01T02:55:51.692Z,98404.59
2023-05-01T02:58:20.473Z,98405.72
2023-05-01T03:00:50.218Z,98394.75
2023-05-01T03:03:19.196Z,98390.47
2023-05-01T03:05:47.796Z,98385.50
2023-05-01T03:08:15.320Z,98384.88
2023-05-01T03:10:43.387Z,98387.75
2023-05-01T03:13:12.745Z,98394.09
2023-05-01T03:15:40.449Z,98410.63
2023-05-01T03:18:07.796Z,98416.84
2023-05-01T03:20:35.155Z,98417.97
2023-05-01T03:23:03.615Z,98424.03
2023-05-01T03:25:32.199Z,98422.59
2023-05-01T03:27:59.902Z,98420.03
2023-05-01T03:30:29.113Z,98428.31
2023-05-01T03:32:56.689Z,98430.84
2023-05-01T03:35:30.425Z,98432.44
2023-05-01T03:37:58.826Z,98433.06
2023-05-01T03:40:52.181Z,98433.38
2023-05-01T03:43:52.278Z,98444.53
2023-05-01T03:46:42.076Z,98450.56
2023-05-01T03:49:14.577Z,98436.88
2023-05-01T03:51:46.677Z,98447.53
2023-05-01T03:54:14.406Z,98440.06
2023-05-01T03:57:00.664Z,98426.38
2023-05-01T03:59:28.135Z,98429.38
2023-05-01T04:01:57.786Z,98432.72
2023-05-01T04:04:29.771Z,98425.25
2023-05-01T04:06:58.818Z,98429.53
2023-05-01T04:09:26.533Z,98442.13
2023-05-01T04:11:54.166Z,98444.81
2023-05-01T04:14:21.705Z,98441.31
2023-05-01T04:16:49.312Z,98443.25
2023-05-01T04:19:18.119Z,98440.22
2023-05-01T04:21:47.482Z,98438.47
2023-05-01T04:24:15.201Z,98437.50
2023-05-01T04:26:43.078Z,98447.06
2023-05-01T04:29:10.965Z,98456.13
2023-05-01T04:31:38.352Z,98455.00
2023-05-01T04:34:05.659Z,98447.53
2023-05-01T04:36:34.677Z,98447.38
2023-05-01T04:39:02.302Z,98453.25
2023-05-01T04:41:31.372Z,98459.78
2023-05-01T04:43:59.057Z,98459.28
2023-05-01T04:46:30.542Z,98467.38
2023-05-01T04:48:57.989Z,98472.66
2023-05-01T04:51:25.489Z,98470.56
2023-05-01T04:53:54.294Z,98478.06
2023-05-01T04:56:27.117Z,98469.47
2023-05-01T04:59:00.145Z,98476.44
2023-05-01T05:01:30.112Z,98475.66
2023-05-01T05:03:57.623Z,98465.47
2023-05-01T05:06:25.664Z,98464.50
2023-05-01T05:08:55.897Z,98463.56
2023-05-01T05:11:23.690Z,98465.97
2023-05-01T05:14:11.227Z,98466.75
2023-05-01T05:16:38.713Z,98469.91
2023-05-01T05:19:06.079Z,98472.16
2023-05-01T05:21:37.490Z,98472.78
2023-05-01T05:24:06.625Z,98479.16
2023-05-01T05:26:33.976Z,98475.00
2023-05-01T05:29:04.159Z,98473.59
2023-05-01T05:31:31.667Z,98459.59
2023-05-01T05:33:59.657Z,98460.06
2023-05-01T05:36:27.957Z,98451.13
2023-05-01T05:38:55.875Z,98465.91
2023-05-01T05:41:24.828Z,98478.19
2023-05-01T05:43:56.630Z,98475.31
2023-05-01T05:46:24.574Z,98485.78
2023-05-01T05:48:52.039Z,98481.78
2023-05-01T05:51:20.049Z,98492.47
2023-05-01T05:53:47.517Z,98494.38
2023-05-01T05:56:15.002Z,98497.56
2023-05-01T05:58:44.384Z,98493.44
2023-05-01T06:01:11.864Z,98497.56
2023-05-01T06:03:40.268Z,98492.97
2023-05-01T06:06:08.056Z,98490.25
2023-05-01T06:08:37.645Z,98487.84
2023-05-01T06:11:09.239Z,98490.38
2023-05-01T06:13:39.735Z,98505.47
2023-05-01T06:16:09.059Z,98511.06
2023-05-01T06:18:36.854Z,98520.47
2023-05-01T06:21:04.733Z,98510.59
2023-05-01T06:23:34.210Z,98522.06
2023-05-01T06:26:20.070Z,98515.50
2023-05-01T06:28:47.522Z,98510.88
2023-05-01T06:31:16.297Z,98512.13
2023-05-01T06:33:49.621Z,98521.06
2023-05-01T06:36:24.286Z,98526.78
2023-05-01T06:38:51.976Z,98529.47
2023-05-01T06:41:19.723Z,98524.53
2023-05-01T06:43:47.605Z,98530.69
2023-05-01T06:46:18.224Z,98532.56
2023-05-01T06:48:47.013Z,98539.00
2023-05-01T06:51:16.260Z,98546.66
2023-05-01T06:53:43.607Z,98543.09
2023-05-01T06:56:11.019Z,98549.44
2023-05-01T06:58:38.363Z,98549.13
2023-05-01T07:01:06.145Z,98553.88
2023-05-01T07:03:35.064Z,98567.38
2023-05-01T07:06:02.587Z,98557.00
2023-05-01T07:08:30.140Z,98560.50
2023-05-01T07:11:00.880Z,98570.44
2023-05-01T07:13:28.535Z,98564.50
2023-05-01T07:15:56.117Z,98573.84
2023-05-01T07:18:23.807Z,98570.78
2023-05-01T07:20:52.997Z,98574.94
2023-05-01T07:23:32.086Z,98569.38
2023-05-01T07:25:59.352Z,98575.22
2023-05-01T07:28:26.644Z,98577.91
2023-05-01T07:30:56.409Z,98585.56
2023-05-01T07:33:26.793Z,98592.00
2023-05-01T07:35:56.632Z,98598.56
2023-05-01T07:38:24.031Z,98594.00
2023-05-01T07:40:52.988Z,98590.06
2023-05-01T07:43:20.402Z,98594.00
2023-05-01T07:45:56.266Z,98599.81
2023-05-01T07:48:23.876Z,98600.81
2023-05-01T07:50:51.300Z,98605.00
2023-05-01T07:53:30.540Z,98606.94
2023-05-01T07:56:06.507Z,98596.41
2023-05-01T07:58:37.668Z,98611.41
2023-05-01T08:01:08.233Z,98614.59
2023-05-01T08:03:38.999Z,98622.28
2023-05-01T08:06:06.987Z,98623.75
2023-05-01T08:08:35.955Z,98622.25
2023-05-01T08:11:03.533Z,98626.75
2023-05-01T08:13:32.121Z,98624.19
2023-05-01T08:16:02.617Z,98619.34
2023-05-01T08:18:30.267Z,98621.56
2023-05-01T08:20:57.582Z,98625.38
2023-05-01T08:23:25.464Z,98633.91
2023-05-01T08:25:54.226Z,98641.16
2023-05-01T08:28:24.929Z,98645.94
2023-05-01T08:30:52.240Z,98648.50
2023-05-01T08:33:19.620Z,98644.94
2023-05-01T08:35:48.342Z,98662.97
2023-05-01T08:38:17.393Z,98644.16
2023-05-01T08:40:52.016Z,98653.25
2023-05-01T08:43:22.838Z,98661.75
2023-05-01T08:45:54.910Z,98662.06
2023-05-01T08:48:24.121Z,98671.28
2023-05-01T08:50:54.954Z,98667.28
2023-05-01T08:53:24.440Z,98680.34
2023-05-01T08:55:52.673Z,98687.78
2023-05-01T08:58:24.795Z,98682.66
2023-05-01T09:00:56.751Z,98685.13
2023-05-01T09:03:26.887Z,98685.47
2023-05-01T09:05:55.147Z,98689.53
2023-05-01T09:08:23.219Z,98689.38
2023-05-01T09:10:54.231Z,98700.47
2023-05-01T09:13:26.704Z,98706.34
2023-05-01T09:16:09.794Z,98684.59
2023-05-01T09:18:37.406Z,98698.72
2023-05-01T09:21:08.141Z,98705.09
2023-05-01T09:23:37.961Z,98705.97
2023-05-01T09:26:06.206Z,98718.16
2023-05-01T09:28:46.312Z,98687.16
2023-05-01T09:31:24.868Z,98701.78
2023-05-01T09:33:56.271Z,98718.06
2023-05-01T09:36:24.918Z,98727.16
2023-05-01T09:38:52.403Z,98714.09
2023-05-01T09:41:21.115Z,98716.03
2023-05-01T09:43:57.138Z,98725.91
2023-05-01T09:46:25.513Z,98720.63
2023-05-01T09:48:57.269Z,98729.44
2023-05-01T09:51:27.203Z,98721.75
2023-05-01T09:53:57.248Z,98715.16
2023-05-01T09:56:26.620Z,98733.44
2023-05-01T09:58:58.860Z,98713.91
2023-05-01T10:01:39.873Z,98727.88
2023-05-01T10:04:09.032Z,98739.38
2023-05-01T10:06:37.329Z,98742.78
2023-05-01T10:09:16.966Z,98745.81
2023-05-01T10:11:49.701Z,98741.66
2023-05-01T10:14:18.789Z,98758.34
2023-05-01T10:16:46.913Z,98747.19
2023-05-01T10:19:19.884Z,98751.88
2023-05-01T10:21:47.401Z,98759.78
2023-05-01T10:24:17.060Z,98771.78
2023-05-01T10:26:45.025Z,98773.28
2023-05-01T10:29:12.991Z,98783.06
2023-05-01T10:31:42.830Z,98781.31
2023-05-01T10:34:12.718Z,98790.78
2023-05-01T10:36:47.720Z,98788.50
2023-05-01T10:39:31.026Z,98789.91
2023-05-01T10:42:05.457Z,98792.69
2023-05-01T10:44:38.094Z,98817.34
2023-05-01T10:47:43.065Z,98826.94
2023-05-01T10:50:13.187Z,98840.06
2023-05-01T10:53:18.272Z,98834.50
2023-05-01T10:55:47.722Z,98839.78
2023-05-01T10:58:56.110Z,98846.16
2023-05-01T11:01:30.838Z,98852.06
2023-05-01T11:03:59.351Z,98867.38
2023-05-01T11:06:28.416Z,98863.69
2023-05-01T11:08:56.956Z,98868.97
2023-05-01T11:11:48.342Z,98863.06
2023-05-01T11:14:16.036Z,98873.44
2023-05-01T11:16:49.541Z,98875.66
2023-05-01T11:19:46.276Z,98876.63
2023-05-01T11:22:15.414Z,98887.31
2023-05-01T11:24:43.426Z,98896.19
2023-05-01T11:27:14.755Z,98891.72
2023-05-01T11:29:45.324Z,98890.09
2023-05-01T11:32:19.189Z,98906.97
2023-05-01T11:34:48.664Z,98898.44
2023-05-01T11:37:17.912Z,98923.25
2023-05-01T11:39:49.975Z,98924.97
2023-05-01T11:42:21.400Z,98936.72
2023-05-01T11:45:11.081Z,98933.94
2023-05-01T11:47:41.898Z,98934.34
2023-05-01T11:50:11.201Z,98924.97
2023-05-01T11:52:49.651Z,98948.31
2023-05-01T11:55:17.127Z,98937.94
2023-05-01T11:57:49.052Z,98952.09
2023-05-01T12:00:25.741Z,98952.25
2023-05-01T12:02:59.764Z,98967.41
2023-05-01T12:05:28.936Z,98938.69
2023-05-01T12:08:15.183Z,98963.44
2023-05-01T12:10:43.900Z,98973.53
2023-05-01T12:13:13.823Z,98955.19
2023-05-01T12:15:43.128Z,98977.09
2023-05-01T12:18:12.317Z,98981.59
2023-05-01T12:20:59.777Z,98969.53
2023-05-01T12:23:40.680Z,98993.09
2023-05-01T12:26:17.265Z,98986.03
2023-05-01T12:28:54.752Z,98986.63
2023-05-01T12:31:22.408Z,99001.25
2023-05-01T12:33:57.593Z,99004.22
2023-05-01T12:36:27.483Z,99006.41
2023-05-01T12:38:58.141Z,99007.19
2023-05-01T12:41:38.930Z,99014.53
2023-05-01T12:44:20.237Z,99019.50
2023-05-01T12:46:54.571Z,99034.47
2023-05-01T12:49:22.631Z,99036.88
2023-05-01T12:51:51.329Z,99039.97
2023-05-01T12:54:23.511Z,99046.31
2023-05-01T12:56:53.741Z,99042.81
2023-05-01T12:59:25.097Z,99047.91
2023-05-01T13:01:59.589Z,99057.16
2023-05-01T13:04:28.051Z,99057.97
2023-05-01T13:06:56.678Z,99060.28
2023-05-01T13:09:27.464Z,99074.78
2023-05-01T13:12:03.516Z,99055.28
2023-05-01T13:14:37.064Z,99088.63
2023-05-01T13:17:06.723Z,99084.19
2023-05-01T13:19:36.636Z,99076.28
2023-05-01T13:22:04.909Z,99081.22
2023-05-01T13:24:41.093Z,99070.50
2023-05-01T13:27:09.012Z,99092.22
2023-05-01T13:29:36.822Z,99105.03
2023-05-01T13:32:06.113Z,99095.88
2023-05-01T13:34:34.581Z,99108.69
2023-05-01T13:37:02.594Z,99102.25
2023-05-01T13:39:30.072Z,99110.75
2023-05-01T13:41:58.995Z,99103.38
2023-05-01T13:44:28.395Z,99107.44
2023-05-01T13:46:56.103Z,99109.28
2023-05-01T13:49:23.538Z,99107.31
2023-05-01T13:51:51.063Z,99115.91
2023-05-01T13:54:19.603Z,99109.13
2023-05-01T13:56:47.186Z,99114.78
2023-05-01T13:59:16.246Z,99124.84
2023-05-01T14:01:46.666Z,99113.00
2023-05-01T14:04:18.530Z,99110.81
2023-05-01T14:06:47.673Z,99106.53
2023-05-01T14:09:18.199Z,99115.91
2023-05-01T14:11:47.701Z,99102.00
2023-05-01T14:14:23.030Z,99114.09
2023-05-01T14:16:55.577Z,99111.31
2023-05-01T14:19:53.201Z,99120.06
2023-05-01T14:22:23.334Z,99129.75
2023-05-01T14:24:59.479Z,99110.28
2023-05-01T14:27:39.579Z,99122.75
2023-05-01T14:30:35.011Z,99126.53
2023-05-01T14:33:15.947Z,99126.09
2023-05-01T14:36:41.592Z,99126.41
2023-05-01T14:39:28.128Z,99126.41
2023-05-01T14:42:02.048Z,99128.88
2023-05-01T14:44:45.206Z,99125.22
2023-05-01T14:47:21.177Z,99138.22
2023-05-01T14:49:53.503Z,99147.19
2023-05-01T14:52:21.752Z,99139.34
2023-05-01T14:54:51.461Z,99153.38
2023-05-01T14:57:19.161Z,99149.81
2023-05-01T14:59:46.485Z,99149.31
2023-05-01T15:05:10.850Z,99158.44
2023-05-01T15:07:41.437Z,99166.50
2023-05-01T15:10:11.821Z,99159.94
2023-05-01T15:12:41.600Z,99155.53
2023-05-01T15:15:30.382Z,99171.81
2023-05-01T15:17:59.245Z,99165.09
2023-05-01T15:20:31.414Z,99177.06
2023-05-01T15:23:03.963Z,99176.91
2023-05-01T15:25:33.076Z,99178.38
2023-05-01T15:28:08.104Z,99180.84
2023-05-01T15:30:36.099Z,99188.50
2023-05-01T15:33:12.822Z,99193.44
2023-05-01T15:35:44.160Z,99195.19
2023-05-01T15:40:58.062Z,99205.41
2023-05-01T15:43:28.469Z,99212.91
2023-05-01T15:49:31.015Z,99224.03
2023-05-01T15:52:15.226Z,99209.81
2023-05-01T15:55:26.029Z,99231.69
2023-05-01T15:57:53.388Z,99239.63
2023-05-01T16:00:22.048Z,99240.56
2023-05-01T16:02:54.614Z,99255.19
2023-05-01T16:05:24.914Z,99258.31
2023-05-01T16:07:56.268Z,99266.94
2023-05-01T16:10:25.151Z,99272.97
2023-05-01T16:12:53.738Z,99269.09
2023-05-01T16:15:25.798Z,99271.94
2023-05-01T16:17:56.298Z,99274.91
2023-05-01T16:20:52.287Z,99282.41
2023-05-01T16:23:22.705Z,99276.28
2023-05-01T16:25:50.235Z,99287.13
2023-05-01T16:28:17.683Z,99294.91
2023-05-01T16:30:45.768Z,99305.91
2023-05-01T16:33:18.794Z,99305.09
2023-05-01T16:35:49.678Z,99316.09
2023-05-01T16:38:17.541Z,99312.63
2023-05-01T16:40:46.119Z,99317.72
2023-05-01T16:43:13.592Z,99317.72
2023-05-01T16:45:41.515Z,99318.50
2023-05-01T16:48:09.248Z,99322.00
2023-05-01T16:50:39.705Z,99319.59
2023-05-01T16:53:08.603Z,99317.47
2023-05-01T16:55:36.041Z,99320.81
2023-05-01T16:58:03.330Z,99326.84
2023-05-01T17:00:31.453Z,99333.84
2023-05-01T17:02:59.204Z,99330.34
2023-05-01T17:05:27.006Z,99339.75
2023-05-01T17:07:54.867Z,99344.03
2023-05-01T17:10:23.700Z,99348.31
2023-05-01T17:12:51.309Z,99332.78
2023-05-01T17:15:18.816Z,99353.56
2023-05-01T17:17:46.198Z,99350.34
2023-05-01T17:20:14.129Z,99348.88
2023-05-01T17:22:45.831Z,99359.88
2023-05-01T17:25:13.237Z,99356.66
2023-05-01T17:27:42.237Z,99365.38
2023-05-01T17:30:11.286Z,99363.09
2023-05-01T17:32:40.621Z,99364.19
2023-05-01T17:35:10.542Z,99366.34
2023-05-01T17:37:48.182Z,99375.47
2023-05-01T17:40:15.755Z,99378.44
2023-05-01T17:42:45.314Z,99374.72
2023-05-01T17:45:12.678Z,99378.44
2023-05-01T17:47:45.007Z,99381.00
2023-05-01T17:50:13.995Z,99393.72
2023-05-01T17:52:43.466Z,99397.47
2023-05-01T17:55:16.204Z,99397.47
2023-05-01T17:57:47.865Z,99403.66
2023-05-01T18:00:16.412Z,99404.47
2023-05-01T18:02:45.087Z,99414.66
2023-05-01T18:05:20.784Z,99421.88
2023-05-01T18:10:51.776Z,99407.56
2023-05-01T18:13:27.713Z,99426.44
2023-05-01T18:17:00.933Z,99424.97
2023-05-01T18:19:31.991Z,99434.63
2023-05-01T18:26:54.185Z,99444.53
2023-05-01T18:34:28.829Z,99450.41
2023-05-01T18:40:34.559Z,99462.97
2023-05-01T18:43:02.574Z,99471.41
2023-05-01T18:45:31.016Z,99474.34
2023-05-01T18:48:04.612Z,99477.56
2023-05-01T18:54:10.098Z,99488.28
2023-05-01T18:56:37.560Z,99499.53
2023-05-01T18:59:05.066Z,99506.59
2023-05-01T19:01:34.735Z,99512.88
2023-05-01T19:04:04.392Z,99515.41
2023-05-01T19:06:33.850Z,99502.00
2023-05-01T19:09:04.346Z,99489.03
2023-05-01T19:11:32.072Z,99505.09
2023-05-01T19:13:59.588Z,99510.41
2023-05-01T19:16:27.366Z,99505.59
2023-05-01T19:18:54.818Z,99514.16
2023-05-01T19:21:22.299Z,99514.44
2023-05-01T19:23:51.104Z,99508.78
2023-05-01T19:26:18.451Z,99503.16
2023-05-01T19:28:45.913Z,99501.69
2023-05-01T19:31:14.768Z,99506.19
2023-05-01T19:33:42.420Z,99511.66
2023-05-01T19:36:09.820Z,99508.47
2023-05-01T19:38:37.525Z,99505.22
2023-05-01T19:41:06.415Z,99513.78
2023-05-01T19:43:33.793Z,99490.84
2023-05-01T19:46:01.338Z,99511.50
2023-05-01T19:48:28.868Z,99508.16
2023-05-01T19:50:56.466Z,99518.56
2023-05-01T19:53:23.991Z,99518.81
2023-05-01T19:55:51.469Z,99522.53
2023-05-01T19:58:20.212Z,99530.66
2023-05-01T20:00:47.661Z,99532.66
2023-05-01T20:03:15.838Z,99538.00
2023-05-01T20:05:43.388Z,99537.69
2023-05-01T20:08:10.687Z,99533.78
2023-05-01T20:10:37.890Z,99536.78
2023-05-01T20:13:10.542Z,99538.06
2023-05-01T20:15:39.871Z,99550.09
2023-05-01T20:18:07.412Z,99556.47
2023-05-01T20:20:35.329Z,99556.69
2023-05-01T20:23:13.153Z,99563.88
2023-05-01T20:25:41.516Z,99564.22
2023-05-01T20:28:10.466Z,99568.06
2023-05-01T20:30:40.252Z,99568.31
2023-05-01T20:33:08.197Z,99564.53
2023-05-01T20:35:35.698Z,99569.03
2023-05-01T20:41:29.718Z,99566.53
2023-05-01T20:43:57.207Z,99567.00
2023-05-01T20:46:26.032Z,99573.22
2023-05-01T20:48:54.332Z,99582.72
2023-05-01T20:51:22.171Z,99581.09
2023-05-01T20:53:49.767Z,99586.38
2023-05-01T20:56:17.049Z,99585.81
2023-05-01T20:58:44.686Z,99593.53
2023-05-01T21:01:12.279Z,99597.94
2023-05-01T21:03:41.412Z,99600.69
2023-05-01T21:06:08.878Z,99605.09
2023-05-01T21:08:36.552Z,99608.66
2023-05-01T21:11:03.943Z,99615.47
2023-05-01T21:13:32.401Z,99611.53
2023-05-01T21:16:00.659Z,99620.09
2023-05-01T21:18:33.201Z,99619.63
2023-05-01T21:21:02.371Z,99627.34
2023-05-01T21:23:30.175Z,99627.69
2023-05-01T21:25:57.616Z,99637.94
2023-05-01T21:28:25.259Z,99640.72
2023-05-01T21:30:53.536Z,99650.28
2023-05-01T21:33:21.339Z,99654.44
2023-05-01T21:35:49.389Z,99650.41
2023-05-01T21:38:18.161Z,99652.56
2023-05-01T21:40:46.349Z,99666.06
2023-05-01T21:43:14.358Z,99668.13
2023-05-01T21:45:43.886Z,99666.75
2023-05-01T21:48:14.705Z,99672.72
2023-05-01T21:50:42.027Z,99682.28
2023-05-01T21:53:09.385Z,99690.09
2023-05-01T21:55:39.305Z,99683.63
2023-05-01T21:58:06.688Z,99693.56
2023-05-01T22:00:34.352Z,99696.31
2023-05-01T22:03:07.139Z,99700.56
2023-05-01T22:05:34.942Z,99704.81
2023-05-01T22:08:02.158Z,99709.31
2023-05-01T22:10:29.886Z,99712.91
2023-05-01T22:12:58.749Z,99717.25
2023-05-01T22:15:26.094Z,99714.00
2023-05-01T22:17:53.637Z,99718.59
2023-05-01T22:20:21.125Z,99718.00
2023-05-01T22:22:48.561Z,99723.09
2023-05-01T22:25:16.843Z,99728.97
2023-05-01T22:27:44.268Z,99724.94
2023-05-01T22:30:13.320Z,99725.72
2023-05-01T22:32:40.891Z,99726.75
2023-05-01T22:35:09.102Z,99730.28
2023-05-01T22:37:36.613Z,99739.75
2023-05-01T22:40:04.807Z,99741.56
2023-05-01T22:42:33.082Z,99741.78
2023-05-01T22:45:00.661Z,99745.34
2023-05-01T22:47:29.637Z,99748.69
2023-05-01T22:49:57.303Z,99748.81
2023-05-01T22:52:24.917Z,99751.66
2023-05-01T22:54:52.753Z,99747.03
2023-05-01T22:57:20.039Z,99763.44
2023-05-01T22:59:48.388Z,99747.84
2023-05-01T23:02:17.682Z,99755.69
2023-05-01T23:04:46.825Z,99758.41
2023-05-01T23:07:14.460Z,99757.00
2023-05-01T23:09:41.985Z,99759.03
2023-05-01T23:12:16.692Z,99762.69
2023-05-01T23:14:46.560Z,99775.56
2023-05-01T23:17:14.649Z,99768.28
2023-05-01T23:19:45.469Z,99773.22
2023-05-01T23:22:14.324Z,99775.25
2023-05-01T23:24:44.408Z,99781.34
2023-05-01T23:27:12.596Z,99786.63
2023-05-01T23:29:41.064Z,99784.38
2023-05-01T23:32:10.733Z,99782.97
2023-05-01T23:34:40.322Z,99793.09
2023-05-01T23:37:07.913Z,99795.75
2023-05-01T23:39:36.693Z,99799.19
2023-05-01T23:42:04.229Z,99808.50
2023-05-01T23:44:31.845Z,99798.56
2023-05-01T23:46:59.397Z,99815.56
2023-05-01T23:49:26.872Z,99807.47
2023-05-01T23:51:54.561Z,99820.13
2023-05-01T23:54:21.878Z,99816.88
2023-05-01T23:56:51.157Z,99829.63
2023-05-01T23:59:19.162Z,99824.66
